sensor_id;sensor_type;location;lat;lon;timestamp;P1;durP1;ratioP1;P2;durP2;ratioP2
48181;SDS011;33976;47.436;18.876;2023-02-12T00:01:24;0.73;;;0.73;;
48181;SDS011;33976;47.436;18.876;2023-02-12T00:03:54;0.60;;;0.60;;
48181;SDS011;33976;47.436;18.876;2023-02-12T00:06:22;0.70;;;0.70;;
48181;SDS011;33976;47.436;18.876;2023-02-12T00:08:50;1.98;;;1.87;;
48181;SDS011;33976;47.436;18.876;2023-02-12T00:11:21;0.60;;;0.60;;
48181;SDS011;33976;47.436;18.876;2023-02-12T00:13:51;1.77;;;1.67;;
48181;SDS011;33976;47.436;18.876;2023-02-12T00:16:22;1.95;;;1.62;;
48181;SDS011;33976;47.436;18.876;2023-02-12T00:18:52;1.77;;;1.05;;
48181;SDS011;33976;47.436;18.876;2023-02-12T00:21:22;1.80;;;1.70;;
48181;SDS011;33976;47.436;18.876;2023-02-12T00:23:50;1.17;;;1.15;;
48181;SDS011;33976;47.436;18.876;2023-02-12T00:26:19;1.92;;;1.83;;
48181;SDS011;33976;47.436;18.876;2023-02-12T00:28:49;0.52;;;0.52;;
48181;SDS011;33976;47.436;18.876;2023-02-12T00:31:22;0.70;;;0.70;;
48181;SDS011;33976;47.436;18.876;2023-02-12T00:33:55;1.40;;;1.30;;
48181;SDS011;33976;47.436;18.876;2023-02-12T00:36:25;0.90;;;0.90;;
48181;SDS011;33976;47.436;18.876;2023-02-12T00:38:54;0.77;;;0.77;;
48181;SDS011;33976;47.436;18.876;2023-02-12T00:41:24;0.50;;;0.50;;
48181;SDS011;33976;47.436;18.876;2023-02-12T00:43:52;0.60;;;0.60;;
48181;SDS011;33976;47.436;18.876;2023-02-12T00:46:21;1.02;;;1.02;;
48181;SDS011;33976;47.436;18.876;2023-02-12T00:48:49;1.27;;;1.27;;
48181;SDS011;33976;47.436;18.876;2023-02-12T00:51:19;0.70;;;0.70;;
48181;SDS011;33976;47.436;18.876;2023-02-12T00:53:47;1.80;;;1.70;;
48181;SDS011;33976;47.436;18.876;2023-02-12T00:56:15;1.70;;;1.60;;
48181;SDS011;33976;47.436;18.876;2023-02-12T00:58:44;3.95;;;2.35;;
48181;SDS011;33976;47.436;18.876;2023-02-12T01:01:13;0.80;;;0.80;;
48181;SDS011;33976;47.436;18.876;2023-02-12T01:03:41;0.85;;;0.85;;
48181;SDS011;33976;47.436;18.876;2023-02-12T01:06:09;2.03;;;1.92;;
48181;SDS011;33976;47.436;18.876;2023-02-12T01:08:38;0.70;;;0.70;;
48181;SDS011;33976;47.436;18.876;2023-02-12T01:11:06;1.92;;;1.83;;
48181;SDS011;33976;47.436;18.876;2023-02-12T01:13:34;1.67;;;1.58;;
48181;SDS011;33976;47.436;18.876;2023-02-12T01:16:07;0.70;;;0.70;;
48181;SDS011;33976;47.436;18.876;2023-02-12T01:18:41;1.15;;;1.15;;
48181;SDS011;33976;47.436;18.876;2023-02-12T01:23:43;0.57;;;0.57;;
48181;SDS011;33976;47.436;18.876;2023-02-12T01:26:13;1.15;;;1.15;;
48181;SDS011;33976;47.436;18.876;2023-02-12T01:28:42;0.90;;;0.90;;
48181;SDS011;33976;47.436;18.876;2023-02-12T01:31:13;0.93;;;0.93;;
48181;SDS011;33976;47.436;18.876;2023-02-12T01:33:42;2.17;;;2.08;;
48181;SDS011;33976;47.436;18.876;2023-02-12T01:36:11;3.22;;;2.00;;
48181;SDS011;33976;47.436;18.876;2023-02-12T01:38:39;1.05;;;1.05;;
48181;SDS011;33976;47.436;18.876;2023-02-12T01:41:09;2.17;;;2.08;;
48181;SDS011;33976;47.436;18.876;2023-02-12T01:43:39;1.05;;;1.02;;
48181;SDS011;33976;47.436;18.876;2023-02-12T01:46:09;2.87;;;1.35;;
48181;SDS011;33976;47.436;18.876;2023-02-12T01:48:43;1.62;;;1.55;;
48181;SDS011;33976;47.436;18.876;2023-02-12T01:51:15;0.80;;;0.80;;
48181;SDS011;33976;47.436;18.876;2023-02-12T01:53:48;0.60;;;0.60;;
48181;SDS011;33976;47.436;18.876;2023-02-12T01:56:19;0.62;;;0.62;;
48181;SDS011;33976;47.436;18.876;2023-02-12T01:58:48;3.53;;;3.17;;
48181;SDS011;33976;47.436;18.876;2023-02-12T02:01:19;1.15;;;1.15;;
48181;SDS011;33976;47.436;18.876;2023-02-12T02:03:52;1.37;;;1.30;;
48181;SDS011;33976;47.436;18.876;2023-02-12T02:06:26;0.73;;;0.73;;
48181;SDS011;33976;47.436;18.876;2023-02-12T02:09:00;0.80;;;0.80;;
48181;SDS011;33976;47.436;18.876;2023-02-12T02:11:29;0.80;;;0.80;;
48181;SDS011;33976;47.436;18.876;2023-02-12T02:14:17;0.90;;;0.90;;
48181;SDS011;33976;47.436;18.876;2023-02-12T02:34:10;0.70;;;0.70;;
48181;SDS011;33976;47.436;18.876;2023-02-12T02:36:49;1.05;;;1.05;;
48181;SDS011;33976;47.436;18.876;2023-02-12T02:39:51;1.48;;;1.48;;
48181;SDS011;33976;47.436;18.876;2023-02-12T02:42:28;0.60;;;0.60;;
48181;SDS011;33976;47.436;18.876;2023-02-12T02:45:06;7.78;;;1.17;;
48181;SDS011;33976;47.436;18.876;2023-02-12T02:47:39;0.80;;;0.80;;
48181;SDS011;33976;47.436;18.876;2023-02-12T02:50:14;3.50;;;2.50;;
48181;SDS011;33976;47.436;18.876;2023-02-12T02:53:07;1.73;;;1.65;;
48181;SDS011;33976;47.436;18.876;2023-02-12T02:55:39;0.70;;;0.70;;
48181;SDS011;33976;47.436;18.876;2023-02-12T02:58:12;0.98;;;0.98;;
48181;SDS011;33976;47.436;18.876;2023-02-12T03:05:59;0.98;;;0.98;;
48181;SDS011;33976;47.436;18.876;2023-02-12T03:08:33;2.70;;;2.50;;
48181;SDS011;33976;47.436;18.876;2023-02-12T03:11:10;3.40;;;3.15;;
48181;SDS011;33976;47.436;18.876;2023-02-12T03:13:51;0.60;;;0.60;;
48181;SDS011;33976;47.436;18.876;2023-02-12T03:16:26;1.58;;;1.12;;
48181;SDS011;33976;47.436;18.876;2023-02-12T03:21:36;0.55;;;0.55;;
48181;SDS011;33976;47.436;18.876;2023-02-12T03:24:32;1.75;;;1.65;;
48181;SDS011;33976;47.436;18.876;2023-02-12T03:29:40;5.00;;;3.58;;
48181;SDS011;33976;47.436;18.876;2023-02-12T03:34:48;1.40;;;1.33;;
48181;SDS011;33976;47.436;18.876;2023-02-12T03:37:38;1.08;;;1.08;;
48181;SDS011;33976;47.436;18.876;2023-02-12T03:40:14;0.98;;;0.98;;
48181;SDS011;33976;47.436;18.876;2023-02-12T03:45:39;1.45;;;1.35;;
48181;SDS011;33976;47.436;18.876;2023-02-12T03:48:27;1.48;;;1.48;;
48181;SDS011;33976;47.436;18.876;2023-02-12T03:53:41;0.60;;;0.60;;
48181;SDS011;33976;47.436;18.876;2023-02-12T03:56:11;0.68;;;0.68;;
48181;SDS011;33976;47.436;18.876;2023-02-12T03:58:43;1.65;;;1.58;;
48181;SDS011;33976;47.436;18.876;2023-02-12T04:01:12;0.88;;;0.82;;
48181;SDS011;33976;47.436;18.876;2023-02-12T04:03:41;0.88;;;0.88;;
48181;SDS011;33976;47.436;18.876;2023-02-12T04:06:24;0.82;;;0.82;;
48181;SDS011;33976;47.436;18.876;2023-02-12T04:08:54;1.35;;;1.25;;
48181;SDS011;33976;47.436;18.876;2023-02-12T04:11:29;2.58;;;2.35;;
48181;SDS011;33976;47.436;18.876;2023-02-12T04:14:07;0.60;;;0.60;;
48181;SDS011;33976;47.436;18.876;2023-02-12T04:16:51;1.23;;;1.23;;
48181;SDS011;33976;47.436;18.876;2023-02-12T04:19:26;0.93;;;0.93;;
48181;SDS011;33976;47.436;18.876;2023-02-12T04:22:14;0.68;;;0.68;;
48181;SDS011;33976;47.436;18.876;2023-02-12T04:27:48;2.25;;;1.90;;
48181;SDS011;33976;47.436;18.876;2023-02-12T04:30:28;1.42;;;1.37;;
48181;SDS011;33976;47.436;18.876;2023-02-12T04:33:02;0.75;;;0.75;;
48181;SDS011;33976;47.436;18.876;2023-02-12T04:35:42;0.85;;;0.85;;
48181;SDS011;33976;47.436;18.876;2023-02-12T04:38:24;2.08;;;1.90;;
48181;SDS011;33976;47.436;18.876;2023-02-12T04:40:55;0.80;;;0.80;;
48181;SDS011;33976;47.436;18.876;2023-02-12T04:43:30;1.12;;;1.12;;
48181;SDS011;33976;47.436;18.876;2023-02-12T04:46:04;3.90;;;3.55;;
48181;SDS011;33976;47.436;18.876;2023-02-12T04:48:33;0.55;;;0.55;;
48181;SDS011;33976;47.436;18.876;2023-02-12T04:51:04;5.75;;;2.72;;
48181;SDS011;33976;47.436;18.876;2023-02-12T04:53:32;0.80;;;0.80;;
48181;SDS011;33976;47.436;18.876;2023-02-12T04:56:00;2.53;;;2.33;;
48181;SDS011;33976;47.436;18.876;2023-02-12T04:58:29;0.65;;;0.65;;
48181;SDS011;33976;47.436;18.876;2023-02-12T05:00:57;1.52;;;1.42;;
48181;SDS011;33976;47.436;18.876;2023-02-12T05:03:26;2.05;;;1.12;;
48181;SDS011;33976;47.436;18.876;2023-02-12T05:05:55;1.55;;;1.45;;
48181;SDS011;33976;47.436;18.876;2023-02-12T05:08:23;0.80;;;0.80;;
48181;SDS011;33976;47.436;18.876;2023-02-12T05:10:51;3.10;;;2.87;;
48181;SDS011;33976;47.436;18.876;2023-02-12T05:13:20;1.35;;;1.25;;
48181;SDS011;33976;47.436;18.876;2023-02-12T05:15:48;2.25;;;2.15;;
48181;SDS011;33976;47.436;18.876;2023-02-12T05:18:17;0.80;;;0.80;;
48181;SDS011;33976;47.436;18.876;2023-02-12T05:20:45;1.05;;;1.05;;
48181;SDS011;33976;47.436;18.876;2023-02-12T05:23:24;0.85;;;0.85;;
48181;SDS011;33976;47.436;18.876;2023-02-12T05:25:57;1.48;;;1.25;;
48181;SDS011;33976;47.436;18.876;2023-02-12T05:28:26;1.08;;;1.08;;
48181;SDS011;33976;47.436;18.876;2023-02-12T05:30:58;1.15;;;1.05;;
48181;SDS011;33976;47.436;18.876;2023-02-12T05:33:28;2.75;;;0.90;;
48181;SDS011;33976;47.436;18.876;2023-02-12T05:36:03;0.70;;;0.70;;
48181;SDS011;33976;47.436;18.876;2023-02-12T05:38:33;0.62;;;0.62;;
48181;SDS011;33976;47.436;18.876;2023-02-12T05:41:08;1.80;;;1.70;;
48181;SDS011;33976;47.436;18.876;2023-02-12T05:43:38;0.98;;;0.98;;
48181;SDS011;33976;47.436;18.876;2023-02-12T05:46:07;0.60;;;0.60;;
48181;SDS011;33976;47.436;18.876;2023-02-12T05:48:36;1.80;;;1.67;;
48181;SDS011;33976;47.436;18.876;2023-02-12T05:51:06;0.75;;;0.75;;
48181;SDS011;33976;47.436;18.876;2023-02-12T05:53:37;1.60;;;1.52;;
48181;SDS011;33976;47.436;18.876;2023-02-12T05:56:08;0.93;;;0.93;;
48181;SDS011;33976;47.436;18.876;2023-02-12T05:58:37;1.35;;;1.33;;
48181;SDS011;33976;47.436;18.876;2023-02-12T06:01:08;1.02;;;1.02;;
48181;SDS011;33976;47.436;18.876;2023-02-12T06:03:38;1.80;;;1.70;;
48181;SDS011;33976;47.436;18.876;2023-02-12T06:06:07;8.10;;;5.47;;
48181;SDS011;33976;47.436;18.876;2023-02-12T06:08:35;44.38;;;32.15;;
48181;SDS011;33976;47.436;18.876;2023-02-12T06:11:05;83.05;;;38.28;;
48181;SDS011;33976;47.436;18.876;2023-02-12T06:13:35;40.72;;;36.30;;
48181;SDS011;33976;47.436;18.876;2023-02-12T06:16:03;15.77;;;14.25;;
48181;SDS011;33976;47.436;18.876;2023-02-12T06:18:36;3.80;;;3.37;;
48181;SDS011;33976;47.436;18.876;2023-02-12T06:21:04;7.15;;;4.97;;
48181;SDS011;33976;47.436;18.876;2023-02-12T06:23:33;2.62;;;2.47;;
48181;SDS011;33976;47.436;18.876;2023-02-12T06:26:01;7.07;;;5.43;;
48181;SDS011;33976;47.436;18.876;2023-02-12T06:28:29;5.00;;;4.60;;
48181;SDS011;33976;47.436;18.876;2023-02-12T06:30:57;7.00;;;3.00;;
48181;SDS011;33976;47.436;18.876;2023-02-12T06:33:25;2.50;;;2.30;;
48181;SDS011;33976;47.436;18.876;2023-02-12T06:35:54;2.20;;;2.10;;
48181;SDS011;33976;47.436;18.876;2023-02-12T06:38:23;0.70;;;0.70;;
48181;SDS011;33976;47.436;18.876;2023-02-12T06:40:51;1.17;;;1.17;;
48181;SDS011;33976;47.436;18.876;2023-02-12T06:43:19;1.15;;;1.12;;
48181;SDS011;33976;47.436;18.876;2023-02-12T06:45:47;2.03;;;1.92;;
48181;SDS011;33976;47.436;18.876;2023-02-12T06:48:16;1.50;;;1.50;;
48181;SDS011;33976;47.436;18.876;2023-02-12T06:50:44;8.23;;;4.22;;
48181;SDS011;33976;47.436;18.876;2023-02-12T06:53:12;0.70;;;0.70;;
48181;SDS011;33976;47.436;18.876;2023-02-12T06:55:40;0.90;;;0.90;;
48181;SDS011;33976;47.436;18.876;2023-02-12T06:58:08;1.08;;;1.05;;
48181;SDS011;33976;47.436;18.876;2023-02-12T07:00:37;2.42;;;2.22;;
48181;SDS011;33976;47.436;18.876;2023-02-12T07:03:05;0.90;;;0.90;;
48181;SDS011;33976;47.436;18.876;2023-02-12T07:05:34;3.62;;;2.80;;
48181;SDS011;33976;47.436;18.876;2023-02-12T07:08:04;4.37;;;3.55;;
48181;SDS011;33976;47.436;18.876;2023-02-12T07:10:32;1.00;;;1.00;;
48181;SDS011;33976;47.436;18.876;2023-02-12T07:13:01;1.00;;;1.00;;
48181;SDS011;33976;47.436;18.876;2023-02-12T07:15:30;3.05;;;2.85;;
48181;SDS011;33976;47.436;18.876;2023-02-12T07:17:58;0.73;;;0.73;;
48181;SDS011;33976;47.436;18.876;2023-02-12T07:20:27;1.42;;;1.35;;
48181;SDS011;33976;47.436;18.876;2023-02-12T07:22:55;1.35;;;1.35;;
48181;SDS011;33976;47.436;18.876;2023-02-12T07:25:23;1.25;;;1.20;;
48181;SDS011;33976;47.436;18.876;2023-02-12T07:27:51;1.40;;;1.33;;
48181;SDS011;33976;47.436;18.876;2023-02-12T07:30:20;0.95;;;0.95;;
48181;SDS011;33976;47.436;18.876;2023-02-12T07:32:48;1.98;;;1.87;;
48181;SDS011;33976;47.436;18.876;2023-02-12T07:35:16;0.60;;;0.60;;
48181;SDS011;33976;47.436;18.876;2023-02-12T07:37:45;0.80;;;0.80;;
48181;SDS011;33976;47.436;18.876;2023-02-12T07:40:13;1.25;;;1.25;;
48181;SDS011;33976;47.436;18.876;2023-02-12T07:42:41;3.53;;;3.33;;
48181;SDS011;33976;47.436;18.876;2023-02-12T07:45:10;3.00;;;2.08;;
48181;SDS011;33976;47.436;18.876;2023-02-12T07:47:38;1.48;;;1.37;;
48181;SDS011;33976;47.436;18.876;2023-02-12T07:50:07;2.28;;;2.08;;
48181;SDS011;33976;47.436;18.876;2023-02-12T07:52:36;1.58;;;1.48;;
48181;SDS011;33976;47.436;18.876;2023-02-12T07:55:04;0.98;;;0.98;;
48181;SDS011;33976;47.436;18.876;2023-02-12T07:57:35;1.98;;;1.85;;
48181;SDS011;33976;47.436;18.876;2023-02-12T08:00:04;1.77;;;1.67;;
48181;SDS011;33976;47.436;18.876;2023-02-12T08:02:38;0.77;;;0.77;;
48181;SDS011;33976;47.436;18.876;2023-02-12T08:05:06;0.60;;;0.60;;
48181;SDS011;33976;47.436;18.876;2023-02-12T08:07:35;1.98;;;1.85;;
48181;SDS011;33976;47.436;18.876;2023-02-12T08:10:03;1.02;;;1.02;;
48181;SDS011;33976;47.436;18.876;2023-02-12T08:12:32;0.68;;;0.68;;
48181;SDS011;33976;47.436;18.876;2023-02-12T08:15:00;1.50;;;1.40;;
48181;SDS011;33976;47.436;18.876;2023-02-12T08:17:29;1.23;;;1.12;;
48181;SDS011;33976;47.436;18.876;2023-02-12T08:19:58;1.65;;;1.08;;
48181;SDS011;33976;47.436;18.876;2023-02-12T08:22:26;1.35;;;1.25;;
48181;SDS011;33976;47.436;18.876;2023-02-12T08:24:54;1.27;;;1.17;;
48181;SDS011;33976;47.436;18.876;2023-02-12T08:27:23;1.00;;;1.00;;
48181;SDS011;33976;47.436;18.876;2023-02-12T08:29:51;1.83;;;1.73;;
48181;SDS011;33976;47.436;18.876;2023-02-12T08:32:19;1.35;;;1.27;;
48181;SDS011;33976;47.436;18.876;2023-02-12T08:34:47;1.80;;;1.70;;
48181;SDS011;33976;47.436;18.876;2023-02-12T08:37:15;0.85;;;0.85;;
48181;SDS011;33976;47.436;18.876;2023-02-12T08:39:44;0.93;;;0.85;;
48181;SDS011;33976;47.436;18.876;2023-02-12T08:42:12;3.05;;;1.52;;
48181;SDS011;33976;47.436;18.876;2023-02-12T08:44:41;2.75;;;2.60;;
48181;SDS011;33976;47.436;18.876;2023-02-12T08:47:09;5.90;;;1.87;;
48181;SDS011;33976;47.436;18.876;2023-02-12T08:49:38;1.10;;;1.10;;
48181;SDS011;33976;47.436;18.876;2023-02-12T08:52:06;1.17;;;1.17;;
48181;SDS011;33976;47.436;18.876;2023-02-12T08:54:34;1.73;;;1.62;;
48181;SDS011;33976;47.436;18.876;2023-02-12T08:57:03;0.85;;;0.85;;
48181;SDS011;33976;47.436;18.876;2023-02-12T08:59:31;2.37;;;1.73;;
48181;SDS011;33976;47.436;18.876;2023-02-12T09:01:59;1.77;;;1.65;;
48181;SDS011;33976;47.436;18.876;2023-02-12T09:04:28;1.52;;;1.42;;
48181;SDS011;33976;47.436;18.876;2023-02-12T09:06:57;0.80;;;0.80;;
48181;SDS011;33976;47.436;18.876;2023-02-12T09:09:25;1.83;;;1.73;;
48181;SDS011;33976;47.436;18.876;2023-02-12T09:11:54;2.60;;;1.75;;
48181;SDS011;33976;47.436;18.876;2023-02-12T09:14:22;1.17;;;1.00;;
48181;SDS011;33976;47.436;18.876;2023-02-12T09:16:52;2.58;;;2.37;;
48181;SDS011;33976;47.436;18.876;2023-02-12T09:19:21;3.55;;;3.28;;
48181;SDS011;33976;47.436;18.876;2023-02-12T09:21:50;4.65;;;2.08;;
48181;SDS011;33976;47.436;18.876;2023-02-12T09:24:23;11.85;;;9.05;;
48181;SDS011;33976;47.436;18.876;2023-02-12T09:26:52;7.47;;;5.57;;
48181;SDS011;33976;47.436;18.876;2023-02-12T09:29:20;26.60;;;15.77;;
48181;SDS011;33976;47.436;18.876;2023-02-12T09:31:49;12.45;;;9.32;;
48181;SDS011;33976;47.436;18.876;2023-02-12T09:34:17;6.40;;;5.45;;
48181;SDS011;33976;47.436;18.876;2023-02-12T09:36:46;1.65;;;1.55;;
48181;SDS011;33976;47.436;18.876;2023-02-12T09:39:14;1.60;;;1.50;;
48181;SDS011;33976;47.436;18.876;2023-02-12T09:47:12;1.45;;;1.35;;
48181;SDS011;33976;47.436;18.876;2023-02-12T09:50:02;5.18;;;2.03;;
48181;SDS011;33976;47.436;18.876;2023-02-12T09:55:08;1.30;;;1.23;;
48181;SDS011;33976;47.436;18.876;2023-02-12T09:57:40;6.07;;;3.08;;
48181;SDS011;33976;47.436;18.876;2023-02-12T10:02:38;1.10;;;1.05;;
48181;SDS011;33976;47.436;18.876;2023-02-12T10:05:14;1.52;;;1.33;;
48181;SDS011;33976;47.436;18.876;2023-02-12T10:07:52;0.73;;;0.73;;
48181;SDS011;33976;47.436;18.876;2023-02-12T10:13:36;1.45;;;1.05;;
48181;SDS011;33976;47.436;18.876;2023-02-12T10:21:54;0.52;;;0.52;;
48181;SDS011;33976;47.436;18.876;2023-02-12T10:27:10;1.20;;;1.10;;
48181;SDS011;33976;47.436;18.876;2023-02-12T10:29:42;0.95;;;0.95;;
48181;SDS011;33976;47.436;18.876;2023-02-12T10:32:14;0.98;;;0.98;;
48181;SDS011;33976;47.436;18.876;2023-02-12T10:34:53;1.85;;;1.67;;
48181;SDS011;33976;47.436;18.876;2023-02-12T10:42:46;2.47;;;1.23;;
48181;SDS011;33976;47.436;18.876;2023-02-12T10:45:21;1.52;;;1.45;;
48181;SDS011;33976;47.436;18.876;2023-02-12T10:47:53;0.73;;;0.73;;
48181;SDS011;33976;47.436;18.876;2023-02-12T10:53:15;0.62;;;0.62;;
48181;SDS011;33976;47.436;18.876;2023-02-12T10:55:48;1.00;;;0.98;;
48181;SDS011;33976;47.436;18.876;2023-02-12T10:58:20;2.28;;;2.08;;
48181;SDS011;33976;47.436;18.876;2023-02-12T11:00:55;1.17;;;1.10;;
48181;SDS011;33976;47.436;18.876;2023-02-12T11:03:31;1.12;;;1.02;;
48181;SDS011;33976;47.436;18.876;2023-02-12T11:06:12;3.33;;;2.90;;
48181;SDS011;33976;47.436;18.876;2023-02-12T11:08:44;0.80;;;0.80;;
48181;SDS011;33976;47.436;18.876;2023-02-12T11:11:15;1.35;;;1.17;;
48181;SDS011;33976;47.436;18.876;2023-02-12T11:13:52;1.42;;;1.33;;
48181;SDS011;33976;47.436;18.876;2023-02-12T11:16:54;5.70;;;1.50;;
48181;SDS011;33976;47.436;18.876;2023-02-12T11:19:24;1.58;;;1.15;;
48181;SDS011;33976;47.436;18.876;2023-02-12T11:22:10;2.45;;;1.00;;
48181;SDS011;33976;47.436;18.876;2023-02-12T11:24:45;2.78;;;1.55;;
48181;SDS011;33976;47.436;18.876;2023-02-12T11:29:42;1.85;;;1.48;;
48181;SDS011;33976;47.436;18.876;2023-02-12T11:32:14;12.82;;;2.15;;
48181;SDS011;33976;47.436;18.876;2023-02-12T11:34:53;9.43;;;6.07;;
48181;SDS011;33976;47.436;18.876;2023-02-12T11:37:42;5.90;;;5.28;;
48181;SDS011;33976;47.436;18.876;2023-02-12T11:40:15;12.68;;;7.60;;
48181;SDS011;33976;47.436;18.876;2023-02-12T11:42:51;3.92;;;3.55;;
48181;SDS011;33976;47.436;18.876;2023-02-12T11:45:26;2.17;;;2.00;;
48181;SDS011;33976;47.436;18.876;2023-02-12T11:48:09;1.10;;;1.10;;
48181;SDS011;33976;47.436;18.876;2023-02-12T11:50:48;1.37;;;1.27;;
48181;SDS011;33976;47.436;18.876;2023-02-12T11:53:23;1.42;;;1.35;;
48181;SDS011;33976;47.436;18.876;2023-02-12T11:55:57;1.00;;;1.00;;
48181;SDS011;33976;47.436;18.876;2023-02-12T11:58:28;1.40;;;1.30;;
48181;SDS011;33976;47.436;18.876;2023-02-12T12:03:38;0.50;;;0.50;;
48181;SDS011;33976;47.436;18.876;2023-02-12T12:09:20;3.67;;;1.83;;
48181;SDS011;33976;47.436;18.876;2023-02-12T12:11:57;0.82;;;0.82;;
48181;SDS011;33976;47.436;18.876;2023-02-12T12:14:46;1.77;;;1.67;;
48181;SDS011;33976;47.436;18.876;2023-02-12T12:17:47;0.60;;;0.60;;
48181;SDS011;33976;47.436;18.876;2023-02-12T12:21:00;0.62;;;0.62;;
48181;SDS011;33976;47.436;18.876;2023-02-12T12:23:51;1.33;;;1.23;;
48181;SDS011;33976;47.436;18.876;2023-02-12T12:26:22;1.55;;;1.05;;
48181;SDS011;33976;47.436;18.876;2023-02-12T12:31:45;0.60;;;0.60;;
48181;SDS011;33976;47.436;18.876;2023-02-12T12:34:18;0.60;;;0.60;;
48181;SDS011;33976;47.436;18.876;2023-02-12T12:37:02;7.15;;;4.85;;
48181;SDS011;33976;47.436;18.876;2023-02-12T12:50:34;1.00;;;1.00;;
48181;SDS011;33976;47.436;18.876;2023-02-12T13:18:31;3.65;;;1.30;;
48181;SDS011;33976;47.436;18.876;2023-02-12T13:21:17;0.68;;;0.68;;
48181;SDS011;33976;47.436;18.876;2023-02-12T13:23:55;0.95;;;0.95;;
48181;SDS011;33976;47.436;18.876;2023-02-12T13:26:50;0.75;;;0.75;;
48181;SDS011;33976;47.436;18.876;2023-02-12T13:29:18;0.73;;;0.73;;
48181;SDS011;33976;47.436;18.876;2023-02-12T13:31:51;1.20;;;1.10;;
48181;SDS011;33976;47.436;18.876;2023-02-12T13:34:22;0.80;;;0.80;;
48181;SDS011;33976;47.436;18.876;2023-02-12T13:36:55;0.80;;;0.80;;
48181;SDS011;33976;47.436;18.876;2023-02-12T13:39:26;2.35;;;2.15;;
48181;SDS011;33976;47.436;18.876;2023-02-12T13:44:42;0.57;;;0.57;;
48181;SDS011;33976;47.436;18.876;2023-02-12T13:47:49;1.05;;;0.95;;
48181;SDS011;33976;47.436;18.876;2023-02-12T13:50:36;1.77;;;1.55;;
48181;SDS011;33976;47.436;18.876;2023-02-12T13:55:45;2.42;;;2.15;;
48181;SDS011;33976;47.436;18.876;2023-02-12T14:01:07;2.35;;;2.20;;
48181;SDS011;33976;47.436;18.876;2023-02-12T14:03:38;3.35;;;3.05;;
48181;SDS011;33976;47.436;18.876;2023-02-12T14:08:37;1.35;;;1.25;;
48181;SDS011;33976;47.436;18.876;2023-02-12T14:11:12;1.62;;;1.52;;
48181;SDS011;33976;47.436;18.876;2023-02-12T14:22:10;2.87;;;2.67;;
48181;SDS011;33976;47.436;18.876;2023-02-12T14:24:50;2.67;;;2.33;;
48181;SDS011;33976;47.436;18.876;2023-02-12T14:38:03;2.92;;;2.72;;
48181;SDS011;33976;47.436;18.876;2023-02-12T14:47:00;4.22;;;3.75;;
48181;SDS011;33976;47.436;18.876;2023-02-12T14:49:43;3.22;;;2.92;;
48181;SDS011;33976;47.436;18.876;2023-02-12T14:52:15;4.62;;;3.15;;
48181;SDS011;33976;47.436;18.876;2023-02-12T15:02:38;1.75;;;1.65;;
48181;SDS011;33976;47.436;18.876;2023-02-12T15:07:57;1.08;;;1.05;;
48181;SDS011;33976;47.436;18.876;2023-02-12T15:10:31;2.85;;;1.60;;
48181;SDS011;33976;47.436;18.876;2023-02-12T15:13:14;3.72;;;3.40;;
48181;SDS011;33976;47.436;18.876;2023-02-12T15:15:52;2.55;;;2.35;;
48181;SDS011;33976;47.436;18.876;2023-02-12T15:18:27;1.00;;;1.00;;
48181;SDS011;33976;47.436;18.876;2023-02-12T15:29:16;3.00;;;2.22;;
48181;SDS011;33976;47.436;18.876;2023-02-12T15:31:49;2.65;;;1.62;;
48181;SDS011;33976;47.436;18.876;2023-02-12T15:34:29;10.68;;;8.88;;
48181;SDS011;33976;47.436;18.876;2023-02-12T15:37:00;16.85;;;4.75;;
48181;SDS011;33976;47.436;18.876;2023-02-12T15:39:35;2.47;;;2.25;;
48181;SDS011;33976;47.436;18.876;2023-02-12T15:47:42;2.92;;;2.72;;
48181;SDS011;33976;47.436;18.876;2023-02-12T15:50:12;3.90;;;3.60;;
48181;SDS011;33976;47.436;18.876;2023-02-12T15:52:42;4.45;;;3.17;;
48181;SDS011;33976;47.436;18.876;2023-02-12T15:55:13;4.03;;;3.78;;
48181;SDS011;33976;47.436;18.876;2023-02-12T15:57:57;2.60;;;2.40;;
48181;SDS011;33976;47.436;18.876;2023-02-12T16:06:10;4.20;;;2.92;;
48181;SDS011;33976;47.436;18.876;2023-02-12T16:08:47;5.93;;;5.47;;
48181;SDS011;33976;47.436;18.876;2023-02-12T16:11:25;3.35;;;3.08;;
48181;SDS011;33976;47.436;18.876;2023-02-12T16:13:57;1.70;;;1.60;;
48181;SDS011;33976;47.436;18.876;2023-02-12T16:16:46;2.00;;;1.90;;
48181;SDS011;33976;47.436;18.876;2023-02-12T16:21:49;2.05;;;1.95;;
48181;SDS011;33976;47.436;18.876;2023-02-12T16:24:38;2.67;;;2.55;;
48181;SDS011;33976;47.436;18.876;2023-02-12T16:29:49;4.87;;;1.83;;
48181;SDS011;33976;47.436;18.876;2023-02-12T16:32:38;2.87;;;1.37;;
48181;SDS011;33976;47.436;18.876;2023-02-12T16:40:11;1.12;;;1.02;;
48181;SDS011;33976;47.436;18.876;2023-02-12T16:45:34;1.77;;;1.67;;
48181;SDS011;33976;47.436;18.876;2023-02-12T16:50:36;0.70;;;0.70;;
48181;SDS011;33976;47.436;18.876;2023-02-12T16:53:07;1.55;;;1.48;;
48181;SDS011;33976;47.436;18.876;2023-02-12T16:55:51;0.70;;;0.70;;
48181;SDS011;33976;47.436;18.876;2023-02-12T16:58:20;0.68;;;0.68;;
48181;SDS011;33976;47.436;18.876;2023-02-12T17:00:48;0.70;;;0.70;;
48181;SDS011;33976;47.436;18.876;2023-02-12T17:03:16;2.28;;;2.12;;
48181;SDS011;33976;47.436;18.876;2023-02-12T17:05:44;4.22;;;1.40;;
48181;SDS011;33976;47.436;18.876;2023-02-12T17:08:13;0.70;;;0.70;;
48181;SDS011;33976;47.436;18.876;2023-02-12T17:10:43;0.62;;;0.62;;
48181;SDS011;33976;47.436;18.876;2023-02-12T17:13:12;0.80;;;0.80;;
48181;SDS011;33976;47.436;18.876;2023-02-12T17:15:51;0.70;;;0.70;;
48181;SDS011;33976;47.436;18.876;2023-02-12T17:18:22;1.00;;;1.00;;
48181;SDS011;33976;47.436;18.876;2023-02-12T17:20:55;3.45;;;2.72;;
48181;SDS011;33976;47.436;18.876;2023-02-12T17:23:25;0.90;;;0.90;;
48181;SDS011;33976;47.436;18.876;2023-02-12T17:25:53;0.80;;;0.80;;
48181;SDS011;33976;47.436;18.876;2023-02-12T17:28:22;1.10;;;1.10;;
48181;SDS011;33976;47.436;18.876;2023-02-12T17:30:52;0.80;;;0.80;;
48181;SDS011;33976;47.436;18.876;2023-02-12T17:33:20;2.20;;;2.08;;
48181;SDS011;33976;47.436;18.876;2023-02-12T17:35:49;1.05;;;1.02;;
48181;SDS011;33976;47.436;18.876;2023-02-12T17:38:17;0.70;;;0.70;;
48181;SDS011;33976;47.436;18.876;2023-02-12T17:40:45;1.95;;;1.73;;
48181;SDS011;33976;47.436;18.876;2023-02-12T17:43:13;0.70;;;0.70;;
48181;SDS011;33976;47.436;18.876;2023-02-12T17:45:42;0.90;;;0.90;;
48181;SDS011;33976;47.436;18.876;2023-02-12T17:48:10;0.77;;;0.77;;
48181;SDS011;33976;47.436;18.876;2023-02-12T17:50:40;5.00;;;2.35;;
48181;SDS011;33976;47.436;18.876;2023-02-12T17:53:08;0.70;;;0.70;;
48181;SDS011;33976;47.436;18.876;2023-02-12T17:55:37;0.70;;;0.70;;
48181;SDS011;33976;47.436;18.876;2023-02-12T17:58:06;1.27;;;1.27;;
48181;SDS011;33976;47.436;18.876;2023-02-12T18:00:35;0.70;;;0.70;;
48181;SDS011;33976;47.436;18.876;2023-02-12T18:03:03;2.37;;;2.28;;
48181;SDS011;33976;47.436;18.876;2023-02-12T18:05:31;1.12;;;1.12;;
48181;SDS011;33976;47.436;18.876;2023-02-12T18:07:59;1.00;;;1.00;;
48181;SDS011;33976;47.436;18.876;2023-02-12T18:10:30;2.28;;;2.08;;
48181;SDS011;33976;47.436;18.876;2023-02-12T18:12:58;1.05;;;1.05;;
48181;SDS011;33976;47.436;18.876;2023-02-12T18:15:26;2.22;;;2.12;;
48181;SDS011;33976;47.436;18.876;2023-02-12T18:17:54;1.00;;;1.00;;
48181;SDS011;33976;47.436;18.876;2023-02-12T18:20:22;3.22;;;2.15;;
48181;SDS011;33976;47.436;18.876;2023-02-12T18:22:50;1.33;;;1.33;;
48181;SDS011;33976;47.436;18.876;2023-02-12T18:25:19;1.25;;;1.25;;